Aérodrome :
LOGIN :

S'inscrire | Disclaimer

   EN    FR    IT 

 










Légende :    VFR   VFR Marginal   IFR   IFR Intensif   IFR Très Intensif
Visi : 
Plafond : 
>= 8 km
>= 3000ft
5 à 8 km
1000 à 3000 ft
1500m à 5 km
500 à 1000 ft
800 à 1500m
200 à 500 ft
< 800m
< 200 ft
Symboles :   Orages  Brouillard  Fortes neiges  Fortes précipitations  Vent > 20 kt
SIGMETs :   Divers  Orages  Givrage  Turbulence  Onde Orograph.  Cendres Volcan.






- Altitude de l'aérodrome : 157 ft
- Code IATA : LIL


LFQQ - Lille Lesquin

DERNIER METAR :
  • 122030Z AUTO 35004KT CAVOK 28/18 Q1011 TEMPO VRB20G35KT 3000 TSRAGS BKN070CB

METARs EXPIRÉS :
  • 122000Z AUTO VRB02KT CAVOK 29/18 Q1011 TEMPO VRB20G35KT 3000 TSRAGS BKN070CB
  • 121930Z AUTO VRB03KT CAVOK 29/18 Q1011 TEMPO VRB20G35KT 3000 TSRAGS BKN070CB
  • 121900Z AUTO 12002KT CAVOK 30/17 Q1011 TEMPO VRB20G35KT 3000 TSRAGS BKN070CB
  • 121830Z AUTO 11004KT CAVOK 31/17 Q1011 TEMPO VRB20G35KT 3000 TSRAGS BKN070CB
  • 121800Z AUTO VRB03KT CAVOK 33/16 Q1011 NOSIG

TAF AMD TAF LFQQ
Valide du 12 à 18h jusqu'au 14 à 00h UTC


121717Z 1218/1324 VRB05KT CAVOK
TEMPO 1220/1223 VRB20G35KT 3000 TSRAGS BKN070CB
TEMPO 1307/1318 VRB15G25KT SHRA BKN070CB
PROB30 1307/1318 3000 TSRA
ATIS : +33 3 20 16 19 54



MET'MAP, la Météo Aéronautique d'un coup d'oeil ! - Copyright ORBIFLY Décembre 2007 - Disclaimer

ORBIFLY MET'MAP TEAM :

Programmation & Développement : Alexandra Zaïnal
Sur une idée originale de : Baudouin d'Aumeries
Assistance à la programmation : Marc-Olivier Méhu
Soutien technique & logistique : Manuel Goepfert

Contact : metmap@orbifly.com




SOURCES & CREDITS :

   NOAA